createdAt,value
2022-12-15T00:00:26.713Z,57.10
2022-12-15T00:06:56.422Z,56.30
2022-12-15T00:23:09.544Z,57.20
2022-12-15T00:36:09.571Z,56.80
2022-12-15T00:39:11.637Z,56.00
2022-12-15T00:51:18.177Z,53.00
2022-12-15T00:54:34.960Z,56.00
2022-12-15T01:10:49.613Z,56.30
2022-12-15T01:26:25.131Z,55.70
2022-12-15T01:41:34.030Z,54.30
2022-12-15T01:44:36.728Z,54.80
2022-12-15T01:50:44.979Z,53.30
2022-12-15T01:53:53.404Z,54.80
2022-12-15T01:57:00.086Z,55.30
2022-12-15T02:00:04.861Z,54.80
2022-12-15T02:06:10.903Z,53.20
2022-12-15T02:12:25.252Z,54.80
2022-12-15T02:15:33.663Z,54.80
2022-12-15T02:18:41.771Z,54.80
2022-12-15T02:21:49.278Z,54.80
2022-12-15T02:25:11.690Z,54.60
2022-12-15T02:28:19.911Z,55.10
2022-12-15T02:31:39.840Z,55.00
2022-12-15T02:34:45.072Z,54.10
2022-12-15T02:37:49.904Z,54.80
2022-12-15T02:40:57.511Z,54.70
2022-12-15T02:47:20.547Z,54.30
2022-12-15T02:50:41.585Z,54.40
2022-12-15T02:54:01.358Z,54.70
2022-12-15T02:57:11.738Z,54.50
2022-12-15T03:00:15.258Z,54.60
2022-12-15T03:03:19.728Z,54.90
2022-12-15T03:18:37.112Z,54.50
2022-12-15T03:33:52.433Z,53.70
2022-12-15T03:39:56.662Z,54.30
2022-12-15T03:49:03.061Z,53.60
2022-12-15T04:01:12.064Z,54.10
2022-12-15T04:04:14.207Z,53.10
2022-12-15T04:19:38.376Z,52.80
2022-12-15T04:22:41.325Z,52.30
2022-12-15T04:35:39.906Z,51.00
2022-12-15T04:42:14.942Z,51.10
2022-12-15T04:45:29.880Z,51.00
2022-12-15T04:51:59.983Z,50.00
2022-12-15T05:08:16.581Z,49.60
2022-12-15T05:24:36.661Z,49.20
2022-12-15T05:40:12.246Z,49.80
2022-12-15T05:49:18.128Z,49.10
2022-12-15T05:55:21.907Z,48.80
2022-12-15T06:10:31.529Z,47.50
2022-12-15T06:13:34.345Z,48.60
2022-12-15T06:25:56.102Z,48.70
2022-12-15T06:29:01.721Z,48.60
2022-12-15T06:41:12.010Z,47.60
2022-12-15T06:44:15.699Z,47.20
2022-12-15T06:53:22.496Z,47.20
2022-12-15T06:56:32.692Z,47.30
2022-12-15T07:08:42.094Z,46.40
2022-12-15T07:11:45.571Z,45.60
2022-12-15T07:27:58.046Z,45.00
2022-12-15T07:31:02.263Z,43.90
2022-12-15T07:43:11.135Z,45.10
2022-12-15T07:56:07.048Z,45.40
2022-12-15T07:59:10.462Z,45.40
2022-12-15T08:11:22.335Z,45.50
2022-12-15T08:14:24.930Z,45.50
2022-12-15T08:23:33.076Z,45.60
2022-12-15T08:29:53.201Z,44.20
2022-12-15T08:39:50.967Z,42.50
2022-12-15T08:46:03.595Z,45.10
2022-12-15T08:55:11.024Z,44.70
2022-12-15T09:01:22.382Z,44.60
2022-12-15T09:21:49.011Z,43.60
2022-12-15T09:31:02.728Z,39.50
2022-12-15T09:37:06.758Z,42.80
2022-12-15T09:40:11.101Z,43.30
2022-12-15T09:43:34.412Z,43.40
2022-12-15T09:46:49.938Z,43.20
2022-12-15T09:49:54.966Z,42.90
2022-12-15T09:52:57.757Z,43.00
2022-12-15T09:56:05.022Z,43.10
2022-12-15T09:59:22.857Z,42.90
2022-12-15T10:02:46.952Z,43.10
2022-12-15T10:06:23.273Z,43.40
2022-12-15T10:09:30.154Z,43.30
2022-12-15T10:12:36.193Z,43.40
2022-12-15T10:15:44.981Z,42.20
2022-12-15T10:18:59.360Z,42.40
2022-12-15T10:22:03.432Z,40.50
2022-12-15T10:25:15.779Z,42.90
2022-12-15T10:28:32.486Z,42.70
2022-12-15T10:31:41.522Z,42.50
2022-12-15T10:34:45.525Z,43.30
2022-12-15T10:40:55.458Z,42.80
2022-12-15T10:50:22.611Z,43.00
2022-12-15T10:53:43.480Z,42.90
2022-12-15T10:56:50.448Z,43.10
2022-12-15T11:05:56.691Z,43.20
2022-12-15T11:09:08.850Z,43.40
2022-12-15T11:12:28.815Z,43.40
2022-12-15T11:15:45.845Z,43.20
2022-12-15T11:18:53.144Z,43.60
2022-12-15T11:22:00.681Z,44.10
2022-12-15T11:25:11.678Z,43.50
2022-12-15T11:28:17.815Z,43.50
2022-12-15T11:31:25.835Z,43.70
2022-12-15T11:34:36.954Z,43.10
2022-12-15T11:37:40.630Z,43.00
2022-12-15T11:44:06.200Z,43.20
2022-12-15T11:47:16.566Z,43.60
2022-12-15T11:50:30.028Z,43.90
2022-12-15T11:53:46.565Z,43.60
2022-12-15T11:56:59.073Z,43.20
2022-12-15T12:00:18.651Z,43.30
2022-12-15T12:03:31.418Z,43.20
2022-12-15T12:06:37.778Z,43.00
2022-12-15T12:09:46.469Z,42.90
2022-12-15T12:12:56.544Z,42.70
2022-12-15T12:16:09.628Z,43.00
2022-12-15T12:19:15.761Z,42.90
2022-12-15T12:22:23.226Z,42.80
2022-12-15T12:25:25.919Z,42.90
2022-12-15T12:28:32.681Z,42.50
2022-12-15T12:31:46.379Z,42.30
2022-12-15T12:35:32.210Z,42.30
2022-12-15T12:38:29.142Z,43.00
2022-12-15T12:41:39.677Z,43.00
2022-12-15T12:47:49.313Z,42.90
2022-12-15T12:53:55.151Z,42.60
2022-12-15T13:00:02.872Z,42.70
2022-12-15T13:03:20.797Z,42.70
2022-12-15T13:06:49.133Z,39.20
2022-12-15T13:10:02.278Z,41.90
2022-12-15T13:13:34.885Z,41.80
2022-12-15T13:20:10.333Z,41.60
2022-12-15T13:23:39.209Z,41.70
2022-12-15T13:26:44.443Z,41.70
2022-12-15T13:29:55.939Z,41.20
2022-12-15T13:57:45.707Z,40.90
2022-12-15T14:00:51.794Z,40.60
2022-12-15T14:03:58.252Z,40.40
2022-12-15T14:07:01.451Z,40.70
2022-12-15T14:13:36.343Z,41.00
2022-12-15T14:16:38.910Z,40.80
2022-12-15T14:19:41.525Z,39.40
2022-12-15T14:29:02.113Z,40.80
2022-12-15T14:32:04.990Z,40.90
2022-12-15T14:35:12.533Z,40.90
2022-12-15T14:38:17.094Z,41.10
2022-12-15T14:48:13.726Z,40.80
2022-12-15T14:54:29.486Z,40.20
2022-12-15T14:57:41.864Z,40.00
2022-12-15T15:00:51.253Z,40.10
2022-12-15T15:03:10.789Z,40.30
2022-12-15T15:03:59.085Z,40.10
2022-12-15T15:07:02.172Z,40.10
2022-12-15T15:10:21.670Z,40.30
2022-12-15T15:13:26.608Z,40.60
2022-12-15T15:16:28.925Z,40.90
2022-12-15T15:19:39.036Z,39.40
2022-12-15T15:22:44.467Z,36.20
2022-12-15T15:25:51.417Z,40.70
2022-12-15T15:28:53.883Z,40.70
2022-12-15T15:32:05.945Z,40.10
2022-12-15T15:38:19.596Z,40.70
2022-12-15T15:41:25.756Z,40.90
2022-12-15T15:47:29.809Z,40.50
2022-12-15T15:53:35.541Z,40.20
2022-12-15T16:06:16.775Z,40.70
2022-12-15T16:17:02.572Z,21.70
2022-12-15T16:20:04.719Z,22.50
2022-12-15T16:23:13.260Z,22.70
2022-12-15T16:26:20.329Z,22.70
2022-12-15T16:29:21.807Z,22.80
2022-12-15T16:32:23.666Z,23.20
2022-12-15T16:35:25.979Z,23.60
2022-12-15T16:38:30.296Z,23.40
2022-12-15T16:41:32.726Z,23.40
2022-12-15T16:44:34.161Z,23.60
2022-12-15T16:47:36.179Z,23.70
2022-12-15T16:50:39.744Z,23.70
2022-12-15T16:53:42.684Z,23.80
2022-12-15T16:56:44.064Z,24.00
2022-12-15T16:59:45.478Z,24.10
2022-12-15T17:02:48.607Z,24.10
2022-12-15T17:05:52.481Z,24.20
2022-12-15T17:08:56.739Z,24.40
2022-12-15T17:11:59.488Z,24.30
2022-12-15T17:15:02.000Z,23.70
2022-12-15T17:18:04.405Z,24.80
2022-12-15T17:21:12.627Z,25.00
2022-12-15T17:24:17.322Z,25.10
2022-12-15T17:36:39.137Z,49.90
2022-12-15T17:39:43.988Z,49.30
2022-12-15T17:42:46.068Z,49.80
2022-12-15T17:45:49.890Z,49.40
2022-12-15T17:48:51.302Z,50.30
2022-12-15T17:51:53.390Z,29.90
2022-12-15T17:54:55.906Z,50.20
2022-12-15T17:57:58.266Z,30.10
2022-12-15T18:00:59.665Z,49.70
2022-12-15T18:04:01.092Z,50.30
2022-12-15T18:07:03.619Z,50.10
2022-12-15T18:10:06.682Z,50.20
2022-12-15T18:13:16.004Z,51.00
2022-12-15T18:16:17.550Z,50.90
2022-12-15T18:19:19.433Z,51.10
2022-12-15T18:22:23.324Z,51.30
2022-12-15T18:25:27.004Z,51.30
2022-12-15T18:28:29.715Z,51.90
2022-12-15T18:31:31.173Z,51.80
2022-12-15T18:34:32.405Z,31.60
2022-12-15T18:37:35.162Z,51.80
2022-12-15T18:40:36.821Z,52.10
2022-12-15T18:43:41.144Z,52.40
2022-12-15T18:46:47.761Z,52.40
2022-12-15T18:49:49.913Z,52.60
2022-12-15T18:52:59.470Z,52.50
2022-12-15T18:56:02.569Z,52.50
2022-12-15T18:59:05.282Z,52.50
2022-12-15T19:02:07.830Z,54.00
2022-12-15T19:05:26.525Z,53.20
2022-12-15T19:08:31.283Z,52.90
2022-12-15T19:11:33.860Z,53.70
2022-12-15T19:14:42.384Z,53.10
2022-12-15T19:17:59.571Z,53.30
2022-12-15T19:21:27.360Z,53.20
2022-12-15T19:24:45.733Z,53.00
2022-12-15T19:27:47.291Z,53.20
2022-12-15T19:30:48.572Z,33.20
2022-12-15T19:33:50.203Z,53.10
2022-12-15T19:36:51.521Z,33.30
2022-12-15T19:39:55.592Z,53.40
2022-12-15T19:45:59.451Z,53.30
2022-12-15T19:49:00.936Z,53.50
2022-12-15T19:52:02.810Z,53.50
2022-12-15T19:55:05.434Z,33.10
2022-12-15T19:58:26.764Z,54.00
2022-12-15T20:01:29.428Z,53.90
2022-12-15T20:04:31.381Z,53.80
2022-12-15T20:07:32.939Z,53.70
2022-12-15T20:10:35.021Z,34.10
2022-12-15T20:13:36.783Z,40.10
2022-12-15T20:16:38.532Z,36.00
2022-12-15T20:19:40.795Z,33.60
2022-12-15T20:22:43.673Z,54.20
2022-12-15T20:25:46.471Z,38.90
2022-12-15T20:28:48.006Z,54.30
2022-12-15T20:31:49.713Z,34.50
2022-12-15T20:34:51.148Z,54.20
2022-12-15T20:37:53.540Z,54.00
2022-12-15T20:40:56.103Z,54.30
2022-12-15T20:50:03.291Z,54.20
2022-12-15T20:53:10.193Z,54.20
2022-12-15T20:56:12.161Z,45.40
2022-12-15T20:59:14.351Z,54.40
2022-12-15T21:02:18.235Z,33.90
2022-12-15T21:05:21.943Z,33.70
2022-12-15T21:08:25.337Z,37.20
2022-12-15T21:11:31.736Z,33.80
2022-12-15T21:14:33.383Z,54.50
2022-12-15T21:17:37.449Z,41.00
2022-12-15T21:20:47.132Z,54.30
2022-12-15T21:23:48.684Z,54.30
2022-12-15T21:26:51.084Z,34.60
2022-12-15T21:29:53.161Z,54.30
2022-12-15T21:35:56.623Z,53.90
2022-12-15T21:38:58.433Z,34.40
2022-12-15T21:42:03.855Z,54.20
2022-12-15T21:45:13.410Z,54.20
2022-12-15T21:48:29.048Z,54.40
2022-12-15T21:51:34.551Z,34.00
2022-12-15T21:54:36.194Z,38.40
2022-12-15T21:57:38.169Z,50.30
2022-12-15T22:00:45.323Z,54.60
2022-12-15T22:03:52.245Z,40.50
2022-12-15T22:06:53.737Z,54.60
2022-12-15T22:09:55.160Z,35.00
2022-12-15T22:12:59.787Z,54.50
2022-12-15T22:16:01.820Z,54.60
2022-12-15T22:19:10.556Z,54.60
2022-12-15T22:22:13.052Z,32.40
2022-12-15T22:25:16.362Z,43.50
2022-12-15T22:28:21.176Z,34.30
2022-12-15T22:31:22.649Z,55.00
2022-12-15T22:34:25.921Z,35.00
2022-12-15T22:37:27.276Z,55.00
2022-12-15T22:40:29.475Z,55.00
2022-12-15T22:43:34.985Z,55.20
2022-12-15T22:46:37.108Z,55.20
2022-12-15T22:49:39.776Z,55.40
2022-12-15T22:52:41.248Z,55.40
2022-12-15T22:55:43.554Z,55.40
2022-12-15T22:58:47.429Z,35.00
2022-12-15T23:01:48.887Z,55.40
2022-12-15T23:04:50.329Z,51.80
2022-12-15T23:07:53.240Z,33.60
2022-12-15T23:11:08.766Z,33.30
2022-12-15T23:14:12.001Z,33.60
2022-12-15T23:17:13.754Z,33.70
2022-12-15T23:20:15.708Z,33.50
2022-12-15T23:23:17.184Z,33.60
2022-12-15T23:26:20.775Z,33.40
2022-12-15T23:29:22.725Z,33.10
2022-12-15T23:32:24.161Z,33.40
2022-12-15T23:35:25.598Z,33.60
2022-12-15T23:38:27.722Z,33.70
2022-12-15T23:41:29.211Z,33.40
2022-12-15T23:44:31.167Z,33.50
2022-12-15T23:47:32.817Z,33.70
2022-12-15T23:50:34.534Z,33.10
2022-12-15T23:53:37.208Z,33.50
2022-12-15T23:56:39.552Z,33.40
2022-12-15T23:59:41.525Z,33.50
